Time;durP1;ratioP1;P1;durP2;ratioP2;P2;SDS_P1;SDS_P2;PMS_P1;PMS_P2;Temp;Humidity;BMP_temperature;BMP_pressure;BME280_temperature;BME280_humidity;BME280_pressure;Samples;Min_cycle;Max_cycle;Signal;HPM_P1;HPM_P2
2022/06/13 00:00:17;;;;;;;10.18;4.72;;;16.60;99.90;;;;;;5076176;28;20377;-79
2022/06/13 00:02:43;;;;;;;8.20;4.63;;;16.50;99.90;;;;;;5074850;28;20483;-80
2022/06/13 00:05:09;;;;;;;8.43;4.88;;;16.50;99.90;;;;;;5075801;28;20020;-80
2022/06/13 00:07:35;;;;;;;15.88;5.38;;;16.50;99.90;;;;;;5075502;28;20099;-80
2022/06/13 00:10:01;;;;;;;9.13;4.50;;;16.50;99.90;;;;;;5075100;28;20092;-79
2022/06/13 00:12:27;;;;;;;7.47;4.68;;;16.50;99.90;;;;;;5075322;28;20058;-80
2022/06/13 00:14:53;;;;;;;14.15;5.10;;;16.50;99.90;;;;;;5075310;28;20070;-80
2022/06/13 00:17:19;;;;;;;11.00;4.90;;;16.50;99.90;;;;;;5075027;28;20059;-80
2022/06/13 00:19:44;;;;;;;10.95;5.25;;;16.50;99.90;;;;;;5075372;28;20025;-79
2022/06/13 00:22:10;;;;;;;11.73;4.97;;;16.50;99.90;;;;;;5074934;28;20041;-79
2022/06/13 00:24:36;;;;;;;9.27;4.70;;;16.50;99.90;;;;;;5074805;28;20062;-80
2022/06/13 00:27:03;;;;;;;8.55;5.03;;;16.50;99.90;;;;;;5075403;28;20020;-80
2022/06/13 00:29:28;;;;;;;11.43;4.68;;;16.50;99.90;;;;;;5075024;28;20433;-81
2022/06/13 00:31:54;;;;;;;13.82;5.07;;;16.50;99.90;;;;;;5074913;28;20119;-80
2022/06/13 00:34:20;;;;;;;9.23;4.45;;;16.50;99.90;;;;;;5077585;28;20107;-80
2022/06/13 00:36:45;;;;;;;8.02;4.63;;;16.50;99.90;;;;;;5092879;28;20082;-80
2022/06/13 00:39:11;;;;;;;10.27;5.03;;;16.50;99.90;;;;;;5075653;28;20043;-81
2022/06/13 00:41:39;;;;;;;5.95;4.50;;;16.50;99.90;;;;;;5075029;28;20074;-80
2022/06/13 00:44:24;;;;;;;9.02;4.72;;;16.50;99.90;;;;;;5074280;28;20031;-80
2022/06/13 00:46:50;;;;;;;14.95;5.88;;;16.50;99.90;;;;;;5092739;28;20027;-81
2022/06/13 00:49:38;;;;;;;11.85;5.55;;;16.50;99.90;;;;;;5076715;28;20024;-81
2022/06/13 00:52:18;;;;;;;9.05;4.90;;;16.50;99.90;;;;;;5095135;28;20029;-83
2022/06/13 00:54:46;;;;;;;10.10;6.15;;;16.40;99.90;;;;;;5075153;28;20025;-81
2022/06/13 00:57:25;;;;;;;10.77;5.00;;;16.50;99.90;;;;;;5074702;28;20468;-81
2022/06/13 00:59:56;;;;;;;10.93;6.15;;;16.40;99.90;;;;;;5074052;28;20041;-80
2022/06/13 01:02:23;;;;;;;13.25;5.63;;;16.50;99.90;;;;;;5074165;28;20396;-81
2022/06/13 01:04:51;;;;;;;12.85;5.28;;;16.50;99.90;;;;;;5074404;28;20024;-81
2022/06/13 01:07:19;;;;;;;14.15;5.40;;;16.40;99.90;;;;;;5073848;28;20503;-81
2022/06/13 01:12:32;;;;;;;13.45;5.25;;;16.40;99.90;;;;;;5073505;28;20031;-80
2022/06/13 01:15:28;;;;;;;11.55;5.22;;;16.40;99.90;;;;;;5074542;28;20078;-80
2022/06/13 01:18:14;;;;;;;10.15;4.35;;;16.30;99.90;;;;;;5074093;28;20033;-81
2022/06/13 01:20:51;;;;;;;11.50;4.70;;;16.30;99.90;;;;;;5073721;28;20473;-80
2022/06/13 01:23:42;;;;;;;13.68;5.45;;;16.20;99.90;;;;;;5073961;28;20059;-80
2022/06/13 01:26:45;;;;;;;12.98;5.47;;;16.20;99.90;;;;;;5074422;28;20036;-81
2022/06/13 01:29:32;;;;;;;11.57;5.35;;;16.20;99.90;;;;;;5075626;28;20021;-80
2022/06/13 01:32:13;;;;;;;13.55;5.13;;;16.20;99.90;;;;;;5074249;28;20032;-80
2022/06/13 01:35:17;;;;;;;15.93;5.93;;;16.20;99.90;;;;;;5073564;28;20036;-80
2022/06/13 01:38:03;;;;;;;11.63;5.43;;;16.20;99.90;;;;;;5073909;28;20040;-80
2022/06/13 01:40:51;;;;;;;8.40;5.55;;;16.20;99.90;;;;;;5065317;28;20036;-80
2022/06/13 01:43:36;;;;;;;14.23;5.80;;;16.20;99.90;;;;;;5073890;28;20025;-81
2022/06/13 01:46:24;;;;;;;16.13;5.70;;;16.10;99.90;;;;;;5073427;28;20461;-81
2022/06/13 01:48:59;;;;;;;13.75;5.75;;;16.20;99.90;;;;;;5073146;28;20503;-80
2022/06/13 01:51:50;;;;;;;10.55;6.30;;;16.20;99.90;;;;;;5073578;28;20029;-80
2022/06/13 01:54:20;;;;;;;13.88;6.25;;;16.20;99.90;;;;;;5072425;28;20040;-80
2022/06/13 01:57:04;;;;;;;10.55;4.95;;;16.10;99.90;;;;;;5073474;28;20391;-80
2022/06/13 01:59:49;;;;;;;12.50;5.85;;;16.10;99.90;;;;;;5073844;28;20107;-80
2022/06/13 02:02:27;;;;;;;10.43;4.82;;;16.10;99.90;;;;;;5072551;28;20211;-80
2022/06/13 02:05:00;;;;;;;12.90;5.10;;;16.10;99.90;;;;;;5073701;28;20021;-80
2022/06/13 02:07:36;;;;;;;12.00;5.25;;;16.10;99.90;;;;;;5073657;28;20028;-80
2022/06/13 02:10:20;;;;;;;12.05;5.03;;;16.00;99.90;;;;;;5073194;28;20017;-80
2022/06/13 02:12:51;;;;;;;18.17;6.00;;;16.10;99.90;;;;;;5074065;28;20025;-80
2022/06/13 02:15:28;;;;;;;11.25;5.70;;;16.10;99.90;;;;;;5074401;28;20031;-80
2022/06/13 02:18:03;;;;;;;15.38;6.95;;;16.10;99.90;;;;;;5073623;28;20263;-80
2022/06/13 02:20:36;;;;;;;13.65;7.00;;;16.00;99.90;;;;;;5073857;28;20427;-80
2022/06/13 02:23:11;;;;;;;13.50;6.05;;;16.10;99.90;;;;;;5072881;28;20024;-80
2022/06/13 02:25:45;;;;;;;16.88;7.07;;;16.00;99.90;;;;;;5085500;28;20016;-80
2022/06/13 02:28:23;;;;;;;14.88;6.40;;;16.00;99.90;;;;;;5076968;28;20388;-80
2022/06/13 02:30:56;;;;;;;15.35;6.78;;;16.00;99.90;;;;;;5073329;28;20407;-81
2022/06/13 02:33:47;;;;;;;12.75;7.25;;;16.00;99.90;;;;;;5073595;28;20107;-81
2022/06/13 02:36:38;;;;;;;13.13;6.93;;;15.90;99.90;;;;;;5073692;28;20032;-80
2022/06/13 02:39:13;;;;;;;19.83;7.55;;;16.00;99.90;;;;;;5073394;28;20024;-80
2022/06/13 02:41:49;;;;;;;20.20;7.63;;;15.90;99.90;;;;;;5082037;28;20396;-80
2022/06/13 02:44:35;;;;;;;20.83;7.65;;;15.90;99.90;;;;;;5080582;28;20032;-79
2022/06/13 02:47:24;;;;;;;25.10;8.75;;;15.90;99.90;;;;;;5073756;28;20467;-79
2022/06/13 02:50:02;;;;;;;18.73;7.10;;;15.90;99.90;;;;;;5072898;28;20036;-79
2022/06/13 02:52:35;;;;;;;17.75;7.50;;;15.80;99.90;;;;;;5088022;28;20032;-79
2022/06/13 02:55:04;;;;;;;16.75;7.25;;;15.70;99.90;;;;;;5075396;28;20044;-79
2022/06/13 02:57:57;;;;;;;17.60;6.93;;;15.70;99.90;;;;;;5091281;28;20032;-79
2022/06/13 03:00:40;;;;;;;21.25;8.07;;;15.70;99.90;;;;;;5074402;28;20032;-79
2022/06/13 03:03:44;;;;;;;21.92;7.22;;;15.70;99.90;;;;;;5072974;28;20044;-79
2022/06/13 03:06:33;;;;;;;28.90;8.38;;;15.60;99.90;;;;;;5030269;28;20045;-79
2022/06/13 03:09:11;;;;;;;19.67;6.93;;;15.70;99.90;;;;;;5030657;28;20475;-79
2022/06/13 03:11:44;;;;;;;22.58;8.25;;;15.70;99.90;;;;;;5059715;28;20037;-79
2022/06/13 03:14:33;;;;;;;20.80;7.55;;;15.70;99.90;;;;;;5072761;28;20048;-79
2022/06/13 03:17:24;;;;;;;27.67;8.40;;;15.70;99.90;;;;;;5072839;28;20112;-79
2022/06/13 03:19:53;;;;;;;22.38;7.55;;;15.70;99.90;;;;;;5072280;28;20056;-79
2022/06/13 03:22:32;;;;;;;16.55;7.03;;;15.60;99.90;;;;;;5072341;28;20068;-80
2022/06/13 03:25:01;;;;;;;17.55;6.50;;;15.70;99.90;;;;;;5072507;28;20115;-80
2022/06/13 03:27:32;;;;;;;19.00;6.45;;;15.60;99.90;;;;;;5071912;28;20025;-79
2022/06/13 03:30:04;;;;;;;14.98;5.20;;;15.60;99.90;;;;;;5072328;28;20050;-79
2022/06/13 03:32:38;;;;;;;18.38;5.93;;;15.50;99.90;;;;;;5072721;28;20028;-79
2022/06/13 03:35:10;;;;;;;18.35;5.03;;;15.50;99.90;;;;;;5072468;28;20063;-80
2022/06/13 03:37:42;;;;;;;16.75;5.05;;;15.50;99.90;;;;;;5073219;28;20025;-79
2022/06/13 03:40:24;;;;;;;14.55;4.38;;;15.50;99.90;;;;;;5071718;28;20120;-79
2022/06/13 03:43:05;;;;;;;8.95;3.72;;;15.50;99.90;;;;;;5072630;28;20025;-79
2022/06/13 03:45:37;;;;;;;12.45;3.78;;;15.50;99.90;;;;;;5072348;28;20029;-79
2022/06/13 03:48:38;;;;;;;17.77;4.13;;;15.40;99.90;;;;;;5074255;28;20028;-78
2022/06/13 03:51:27;;;;;;;15.18;4.07;;;15.40;99.90;;;;;;5052792;28;20036;-79
2022/06/13 03:54:06;;;;;;;9.35;3.38;;;15.40;99.90;;;;;;5075422;28;20024;-79
2022/06/13 03:56:41;;;;;;;8.27;3.17;;;15.30;99.90;;;;;;5075748;28;20024;-79
2022/06/13 03:59:33;;;;;;;11.85;3.13;;;15.30;99.90;;;;;;5075876;28;20031;-80
2022/06/13 04:02:02;;;;;;;11.00;3.30;;;15.30;99.90;;;;;;5056551;28;20086;-80
2022/06/13 04:04:35;;;;;;;14.45;3.50;;;15.30;99.90;;;;;;5077136;28;20052;-79
2022/06/13 04:07:01;;;;;;;9.07;3.20;;;15.30;99.90;;;;;;5076255;28;20529;-79
2022/06/13 04:10:02;;;;;;;10.82;3.13;;;15.30;99.90;;;;;;5075239;28;20055;-79
2022/06/13 04:12:40;;;;;;;9.05;2.72;;;15.30;99.90;;;;;;5068347;28;20028;-79
2022/06/13 04:15:28;;;;;;;11.95;3.42;;;15.30;99.90;;;;;;5075929;28;20028;-79
2022/06/13 04:18:21;;;;;;;20.92;4.18;;;15.30;99.90;;;;;;5079036;28;20032;-78
2022/06/13 04:21:03;;;;;;;7.10;3.47;;;15.30;99.90;;;;;;5075542;28;20036;-79
2022/06/13 04:23:55;;;;;;;9.00;3.20;;;15.30;99.90;;;;;;5075176;28;20096;-80
2022/06/13 04:26:36;;;;;;;12.68;3.45;;;15.30;99.90;;;;;;5078183;28;20029;-80
2022/06/13 04:29:15;;;;;;;8.80;2.70;;;15.30;99.90;;;;;;5075055;28;20024;-80
2022/06/13 04:31:41;;;;;;;11.18;3.40;;;15.40;99.90;;;;;;5075752;28;20020;-80
2022/06/13 04:34:22;;;;;;;7.03;2.90;;;15.40;99.90;;;;;;5076394;28;20032;-80
2022/06/13 04:36:49;;;;;;;7.70;3.22;;;15.40;99.90;;;;;;5075643;28;20028;-80
2022/06/13 04:39:19;;;;;;;11.20;3.35;;;15.40;99.90;;;;;;5076213;28;20028;-80
2022/06/13 04:41:45;;;;;;;12.10;3.50;;;15.40;99.90;;;;;;5075235;28;20477;-80
2022/06/13 04:44:18;;;;;;;9.70;3.10;;;15.50;99.90;;;;;;5076990;28;20020;-78
2022/06/13 04:46:45;;;;;;;9.05;3.03;;;15.50;99.90;;;;;;5087522;28;20036;-78
2022/06/13 04:49:42;;;;;;;9.95;2.83;;;15.50;99.90;;;;;;5082836;28;20028;-79
2022/06/13 04:52:15;;;;;;;8.02;2.65;;;15.50;99.90;;;;;;5068561;28;20036;-79
2022/06/13 04:54:59;;;;;;;11.40;3.05;;;15.60;99.90;;;;;;5076481;28;20029;-79
2022/06/13 04:57:26;;;;;;;8.10;2.90;;;15.70;99.90;;;;;;5081776;28;20028;-78
2022/06/13 04:59:52;;;;;;;7.45;2.58;;;15.70;99.90;;;;;;5087346;28;20046;-79
2022/06/13 05:02:22;;;;;;;5.82;3.00;;;15.70;99.90;;;;;;5086930;28;20032;-79
2022/06/13 05:04:49;;;;;;;14.15;2.97;;;15.80;99.90;;;;;;5091482;28;20084;-79
2022/06/13 05:07:18;;;;;;;4.03;2.17;;;15.80;99.90;;;;;;5075339;28;20557;-79
2022/06/13 05:09:52;;;;;;;5.68;2.13;;;15.80;99.90;;;;;;5074567;28;20066;-79
2022/06/13 05:12:38;;;;;;;10.52;2.85;;;15.80;99.90;;;;;;5074163;28;20032;-79
2022/06/13 05:15:11;;;;;;;4.75;2.00;;;15.80;99.90;;;;;;5074663;28;20036;-80
2022/06/13 05:17:51;;;;;;;4.80;2.50;;;15.80;99.90;;;;;;5074478;28;20047;-80
2022/06/13 05:20:35;;;;;;;4.47;2.30;;;15.90;99.90;;;;;;5073885;28;20548;-81
2022/06/13 05:23:15;;;;;;;12.90;2.30;;;15.80;99.90;;;;;;5074748;28;20032;-80
2022/06/13 05:25:50;;;;;;;7.57;2.25;;;15.90;99.90;;;;;;5073845;28;20040;-80
2022/06/13 05:28:21;;;;;;;7.47;2.88;;;15.90;99.90;;;;;;5074213;28;20086;-80
2022/06/13 05:30:49;;;;;;;5.55;2.38;;;16.00;99.90;;;;;;5073856;28;20025;-79
2022/06/13 05:33:17;;;;;;;5.93;2.13;;;16.00;99.90;;;;;;5074020;28;20025;-80
2022/06/13 05:35:44;;;;;;;6.25;2.15;;;16.10;99.90;;;;;;5074056;28;20494;-80
2022/06/13 05:38:25;;;;;;;7.00;2.35;;;16.10;99.90;;;;;;5073890;28;20066;-80
2022/06/13 05:40:51;;;;;;;8.93;2.40;;;16.20;99.90;;;;;;5073496;28;20051;-79
2022/06/13 05:43:16;;;;;;;6.55;2.15;;;16.10;99.90;;;;;;5074274;28;20095;-81
2022/06/13 05:45:42;;;;;;;4.55;2.50;;;16.10;99.90;;;;;;5074060;28;20035;-80
2022/06/13 05:48:16;;;;;;;5.47;2.33;;;16.10;99.90;;;;;;5073722;28;20020;-80
2022/06/13 05:50:43;;;;;;;7.32;2.40;;;16.10;99.90;;;;;;5073634;28;20468;-78
2022/06/13 05:53:17;;;;;;;4.50;2.00;;;16.10;99.90;;;;;;5073592;28;20461;-80
2022/06/13 05:55:44;;;;;;;8.57;2.25;;;16.20;99.90;;;;;;5074104;28;20477;-80
2022/06/13 05:58:17;;;;;;;5.70;1.90;;;16.30;99.90;;;;;;5074104;28;20519;-79
2022/06/13 06:00:48;;;;;;;4.80;1.92;;;16.40;99.90;;;;;;5073303;28;20035;-79
2022/06/13 06:03:15;;;;;;;13.52;2.45;;;16.60;99.90;;;;;;5073321;28;20040;-80
2022/06/13 06:05:41;;;;;;;10.30;2.55;;;16.70;99.90;;;;;;5073197;28;20376;-79
2022/06/13 06:08:15;;;;;;;8.60;3.00;;;16.70;99.90;;;;;;5072697;28;20516;-79
2022/06/13 06:10:42;;;;;;;5.10;1.80;;;16.70;99.90;;;;;;5075276;28;20112;-79
2022/06/13 06:13:09;;;;;;;6.78;1.85;;;16.50;99.90;;;;;;5073363;28;20028;-79
2022/06/13 06:15:34;;;;;;;7.32;2.65;;;16.40;99.90;;;;;;5072892;28;20115;-79
2022/06/13 06:18:00;;;;;;;6.72;1.55;;;16.40;99.90;;;;;;5073433;28;20101;-79
2022/06/13 06:20:25;;;;;;;6.68;2.40;;;16.40;99.90;;;;;;5076537;28;20492;-78
2022/06/13 06:22:54;;;;;;;9.25;2.20;;;16.40;99.90;;;;;;5072929;28;20020;-79
2022/06/13 06:25:19;;;;;;;4.60;1.40;;;16.40;99.90;;;;;;5073475;28;20108;-80
2022/06/13 06:27:45;;;;;;;3.15;1.02;;;16.30;99.90;;;;;;5072971;28;20111;-80
2022/06/13 06:30:13;;;;;;;4.95;1.30;;;16.20;99.90;;;;;;5072590;28;20032;-79
2022/06/13 06:32:39;;;;;;;8.05;2.42;;;16.10;99.90;;;;;;5073354;28;20024;-79
2022/06/13 06:35:06;;;;;;;4.97;1.27;;;16.20;99.90;;;;;;5072708;28;20016;-81
2022/06/13 06:37:32;;;;;;;5.97;1.45;;;16.30;99.90;;;;;;5072371;28;20032;-80
2022/06/13 06:39:58;;;;;;;4.75;1.17;;;16.30;99.90;;;;;;5073100;28;20027;-80
2022/06/13 06:42:24;;;;;;;4.57;1.08;;;16.40;99.90;;;;;;5072759;28;20037;-80
2022/06/13 06:44:49;;;;;;;6.25;1.10;;;16.40;99.90;;;;;;5072554;28;20372;-80
2022/06/13 06:47:15;;;;;;;3.95;1.10;;;16.30;99.90;;;;;;5072861;28;20460;-79
2022/06/13 06:49:40;;;;;;;8.05;1.48;;;16.30;99.90;;;;;;5072196;28;20024;-80
2022/06/13 06:52:07;;;;;;;5.88;1.20;;;16.30;99.90;;;;;;5073069;28;20025;-80
2022/06/13 07:00:05;;;;;;;6.80;1.88;;;16.30;99.90;;;;;;5072896;28;20093;-80
2022/06/13 07:02:31;;;;;;;6.80;2.17;;;16.40;99.90;;;;;;5072203;28;20053;-80
2022/06/13 07:05:04;;;;;;;10.73;1.67;;;16.40;99.90;;;;;;5073336;28;20016;-80
2022/06/13 07:07:30;;;;;;;3.38;1.20;;;16.60;99.90;;;;;;5074401;28;20028;-80
2022/06/13 07:09:56;;;;;;;5.90;1.20;;;16.50;99.90;;;;;;5073855;28;20372;-78
2022/06/13 07:12:21;;;;;;;5.32;1.52;;;16.60;99.90;;;;;;5072838;28;20028;-80
2022/06/13 07:14:47;;;;;;;9.63;1.55;;;16.80;99.90;;;;;;5072758;28;20056;-80
2022/06/13 07:17:13;;;;;;;4.93;1.52;;;17.00;99.90;;;;;;5072475;28;20111;-79
2022/06/13 07:19:46;;;;;;;5.22;1.20;;;17.10;99.90;;;;;;5072337;28;20051;-79
2022/06/13 07:22:19;;;;;;;7.10;1.60;;;17.10;99.90;;;;;;5073936;28;20442;-79
2022/06/13 07:24:46;;;;;;;5.47;1.92;;;17.00;99.90;;;;;;5078170;28;20025;-79
2022/06/13 07:27:15;;;;;;;4.72;0.90;;;17.00;99.90;;;;;;5078114;28;20476;-78
2022/06/13 07:29:42;;;;;;;10.43;1.00;;;17.00;99.90;;;;;;5077343;28;20025;-78
2022/06/13 07:32:19;;;;;;;7.07;1.20;;;16.90;99.90;;;;;;5076395;28;20029;-78
2022/06/13 07:34:47;;;;;;;2.50;0.80;;;17.00;99.90;;;;;;5076903;28;20025;-78
2022/06/13 07:38:16;;;;;;;2.22;1.02;;;16.90;99.90;;;;;;5086554;28;20032;-78
2022/06/13 07:40:03;;;;;;;1.95;0.70;;;17.00;99.90;;;;;;5080974;28;20025;-78
2022/06/13 07:42:35;;;;;;;5.70;1.10;;;16.90;99.90;;;;;;5076467;28;20081;-78
2022/06/13 07:45:00;;;;;;;4.35;1.00;;;17.00;99.90;;;;;;5076229;28;20028;-79
2022/06/13 07:47:26;;;;;;;1.30;0.52;;;17.20;99.90;;;;;;5075531;28;20036;-78
2022/06/13 07:49:52;;;;;;;5.45;0.90;;;17.40;99.90;;;;;;5075749;28;20361;-78
2022/06/13 07:52:17;;;;;;;5.00;0.95;;;17.60;99.90;;;;;;5075644;28;20388;-78
2022/06/13 07:54:43;;;;;;;4.75;1.27;;;17.80;99.90;;;;;;5075361;28;20485;-79
2022/06/13 07:57:10;;;;;;;2.20;0.80;;;17.90;99.90;;;;;;5075732;28;20456;-79
2022/06/13 07:59:35;;;;;;;3.42;0.98;;;18.00;99.90;;;;;;5075760;28;20027;-78
2022/06/13 08:02:02;;;;;;;6.28;1.10;;;17.90;99.90;;;;;;5078376;28;20092;-77
2022/06/13 08:04:28;;;;;;;3.88;1.20;;;17.80;99.90;;;;;;5075939;28;20012;-78
2022/06/13 08:06:54;;;;;;;4.93;1.00;;;17.50;99.90;;;;;;5075532;28;20492;-78
2022/06/13 08:09:19;;;;;;;4.18;0.98;;;17.50;99.90;;;;;;5075551;28;20033;-80
2022/06/13 08:11:48;;;;;;;4.70;1.30;;;17.50;99.90;;;;;;5079461;28;20020;-79
2022/06/13 08:14:15;;;;;;;6.05;1.00;;;17.50;99.90;;;;;;5074991;28;20032;-80
2022/06/13 08:16:41;;;;;;;4.40;1.23;;;17.50;99.90;;;;;;5075557;28;20030;-77
2022/06/13 08:19:07;;;;;;;5.28;1.00;;;17.70;99.90;;;;;;5075267;28;20016;-78
2022/06/13 08:21:35;;;;;;;5.18;1.45;;;17.80;99.90;;;;;;5074824;28;20039;-79
2022/06/13 08:24:02;;;;;;;4.72;1.10;;;17.70;99.90;;;;;;5075320;28;20464;-78
2022/06/13 08:26:28;;;;;;;6.45;1.02;;;17.80;99.90;;;;;;5075056;28;20480;-78
2022/06/13 08:28:54;;;;;;;5.95;1.45;;;17.60;99.90;;;;;;5075328;28;20063;-78
2022/06/13 08:31:22;;;;;;;7.57;1.83;;;17.30;99.90;;;;;;5075593;28;20060;-77
2022/06/13 08:33:48;;;;;;;10.05;1.60;;;17.10;99.90;;;;;;5075194;28;20025;-78
2022/06/13 08:36:14;;;;;;;7.78;1.85;;;16.90;99.90;;;;;;5074561;28;20097;-78
2022/06/13 08:38:40;;;;;;;6.85;1.33;;;16.90;99.90;;;;;;5075418;28;20021;-78
2022/06/13 08:41:29;;;;;;;6.07;1.17;;;17.00;99.90;;;;;;5075075;28;20040;-77
2022/06/13 08:44:11;;;;;;;2.25;0.80;;;17.00;99.90;;;;;;5074634;28;20036;-78
2022/06/13 08:46:48;;;;;;;3.65;0.95;;;17.10;99.90;;;;;;5074904;28;20024;-78
2022/06/13 08:49:18;;;;;;;2.78;0.93;;;17.30;99.90;;;;;;5074576;28;20100;-78
2022/06/13 08:51:53;;;;;;;1.60;0.60;;;17.50;99.90;;;;;;5074870;28;20032;-77
2022/06/13 08:54:26;;;;;;;3.15;0.80;;;17.60;99.90;;;;;;5074582;28;20113;-78
2022/06/13 08:56:53;;;;;;;6.55;1.00;;;17.90;99.90;;;;;;5074084;28;20032;-78
2022/06/13 08:59:22;;;;;;;4.13;0.90;;;17.90;99.70;;;;;;5079438;28;20020;-77
2022/06/13 09:01:53;;;;;;;3.88;0.85;;;18.00;99.90;;;;;;5080338;28;20408;-78
2022/06/13 09:04:28;;;;;;;2.90;0.80;;;18.00;99.90;;;;;;5074096;28;20024;-78
2022/06/13 09:07:07;;;;;;;8.13;1.65;;;18.10;99.90;;;;;;5075066;28;20062;-77
2022/06/13 09:09:42;;;;;;;2.47;0.88;;;18.10;99.90;;;;;;5078405;28;20020;-76
2022/06/13 09:12:17;;;;;;;2.33;1.13;;;18.30;99.90;;;;;;5080186;28;20040;-79
2022/06/13 09:15:03;;;;;;;2.58;1.00;;;18.40;99.90;;;;;;5075252;28;20499;-78
2022/06/13 09:17:32;;;;;;;4.43;1.33;;;18.40;99.90;;;;;;5076307;28;20032;-79
2022/06/13 09:20:25;;;;;;;4.75;1.23;;;18.50;99.90;;;;;;5075064;28;20024;-78
2022/06/13 09:23:10;;;;;;;6.93;1.27;;;18.60;99.90;;;;;;5074767;28;20060;-78
2022/06/13 09:25:42;;;;;;;6.82;1.30;;;18.70;99.70;;;;;;5070267;28;20029;-79
2022/06/13 09:28:28;;;;;;;4.60;1.23;;;18.60;99.90;;;;;;5074071;28;20036;-78
2022/06/13 09:31:03;;;;;;;7.50;1.17;;;18.50;99.90;;;;;;5073945;28;20020;-77
2022/06/13 09:33:32;;;;;;;7.40;1.55;;;18.50;99.90;;;;;;5073588;28;20024;-78
2022/06/13 09:36:15;;;;;;;4.97;1.17;;;18.60;99.90;;;;;;5073661;28;20108;-78
2022/06/13 09:38:48;;;;;;;5.65;1.42;;;18.70;99.90;;;;;;5073452;28;20028;-78
2022/06/13 09:41:28;;;;;;;7.60;1.60;;;18.50;99.90;;;;;;5073684;28;20510;-78
2022/06/13 09:44:04;;;;;;;;;;;18.40;99.90;;;;;;5074026;28;20099;-78
2022/06/13 09:46:46;;;;;;;7.53;1.33;;;18.50;99.90;;;;;;5072739;28;20324;-79
2022/06/13 09:49:36;;;;;;;2.78;1.23;;;18.60;99.90;;;;;;5073593;28;20032;-78
2022/06/13 09:52:04;;;;;;;7.23;1.47;;;18.70;99.90;;;;;;5073833;28;20115;-78
2022/06/13 09:54:41;;;;;;;5.55;1.35;;;18.70;99.90;;;;;;5075322;28;20025;-78
2022/06/13 09:57:28;;;;;;;6.60;1.45;;;18.60;99.90;;;;;;5073790;28;20109;-78
2022/06/13 10:00:00;;;;;;;6.32;1.20;;;18.50;99.90;;;;;;5073761;28;20498;-77
2022/06/13 10:02:39;;;;;;;10.73;1.20;;;18.50;99.90;;;;;;5075594;28;20048;-78
2022/06/13 10:05:45;;;;;;;8.02;1.55;;;18.60;99.90;;;;;;5077788;28;20032;-77
2022/06/13 10:08:16;;;;;;;6.75;1.50;;;18.80;99.90;;;;;;5073123;28;20052;-78
2022/06/13 10:11:05;;;;;;;5.50;1.38;;;18.60;99.90;;;;;;5073427;28;20023;-78
2022/06/13 10:13:53;;;;;;;5.90;1.50;;;18.30;99.90;;;;;;5076058;28;20078;-77
2022/06/13 10:16:37;;;;;;;2.63;1.20;;;18.40;99.90;;;;;;5075943;28;20381;-78
2022/06/13 10:19:29;;;;;;;4.43;1.02;;;18.60;99.90;;;;;;5073258;28;20484;-78
2022/06/13 10:22:18;;;;;;;4.57;1.10;;;18.50;99.90;;;;;;5072568;28;20043;-78
2022/06/13 10:25:01;;;;;;;1.25;1.00;;;18.30;99.20;;;;;;5073058;28;20051;-77
2022/06/13 10:27:56;;;;;;;6.43;1.60;;;18.20;99.30;;;;;;5072873;28;20382;-78
2022/06/13 10:30:48;;;;;;;8.60;1.55;;;18.30;99.90;;;;;;5073063;28;20032;-78
2022/06/13 10:33:29;;;;;;;4.35;1.10;;;18.40;99.90;;;;;;5053196;28;20064;-77
2022/06/13 10:36:05;;;;;;;4.35;1.10;;;18.30;99.80;;;;;;5072696;28;20401;-78
2022/06/13 10:39:04;;;;;;;4.47;1.40;;;18.30;99.90;;;;;;5075161;28;20418;-78
2022/06/13 10:41:31;;;;;;;4.45;1.15;;;18.30;99.60;;;;;;5068955;28;20051;-77
2022/06/13 10:44:00;;;;;;;6.65;1.23;;;18.30;98.20;;;;;;5072860;28;20052;-77
2022/06/13 10:46:26;;;;;;;2.83;0.77;;;18.30;98.90;;;;;;5072903;28;20133;-76
2022/06/13 10:49:09;;;;;;;9.27;0.88;;;18.50;98.30;;;;;;5072464;28;20436;-77
2022/06/13 10:51:39;;;;;;;5.97;0.90;;;18.60;98.10;;;;;;5073059;28;20123;-77
2022/06/13 10:54:15;;;;;;;5.15;1.23;;;18.70;98.70;;;;;;5072595;28;20530;-77
2022/06/13 10:56:43;;;;;;;2.92;1.55;;;18.60;97.60;;;;;;5072765;28;20079;-77
2022/06/13 10:59:23;;;;;;;5.65;1.00;;;18.40;98.50;;;;;;5076723;28;20025;-77
2022/06/13 11:02:00;;;;;;;2.63;1.02;;;18.40;97.60;;;;;;5076728;28;20099;-77
2022/06/13 11:04:34;;;;;;;8.57;1.83;;;18.40;99.20;;;;;;5077071;28;20086;-77
2022/06/13 11:07:11;;;;;;;3.70;1.45;;;18.40;98.50;;;;;;5084009;28;20032;-78
2022/06/13 11:09:45;;;;;;;4.47;1.30;;;18.40;97.80;;;;;;5076834;28;20052;-77
2022/06/13 11:12:21;;;;;;;5.75;1.20;;;18.30;98.30;;;;;;5076364;28;20025;-77
2022/06/13 11:23:54;;;;;;;2.17;1.13;;;18.30;97.10;;;;;;5077730;28;20036;-77
2022/06/13 11:29:14;;;;;;;8.20;1.05;;;18.50;97.70;;;;;;5076267;28;20055;-77
2022/06/13 11:31:55;;;;;;;4.45;1.65;;;18.60;97.70;;;;;;5075906;28;20021;-77
2022/06/13 11:34:25;;;;;;;2.10;1.20;;;18.80;95.70;;;;;;5076371;28;20029;-76
2022/06/13 11:37:12;;;;;;;5.15;1.25;;;18.80;95.40;;;;;;5076366;28;20043;-77
2022/06/13 11:39:43;;;;;;;5.55;1.35;;;18.90;97.10;;;;;;5075590;28;20024;-78
2022/06/13 11:42:29;;;;;;;3.63;0.88;;;19.00;96.70;;;;;;5076549;28;20044;-77
2022/06/13 11:45:01;;;;;;;3.97;1.40;;;19.10;95.50;;;;;;5076181;28;20037;-77
2022/06/13 11:47:39;;;;;;;5.10;1.30;;;19.20;95.40;;;;;;5076570;28;20025;-77
2022/06/13 11:50:24;;;;;;;8.77;1.02;;;19.20;95.70;;;;;;5075859;28;20029;-77
2022/06/13 11:55:59;;;;;;;4.03;1.08;;;19.20;96.00;;;;;;5076315;28;20427;-77
2022/06/13 11:58:28;;;;;;;5.72;1.33;;;19.30;95.30;;;;;;5076113;28;20044;-77
2022/06/13 12:01:21;;;;;;;3.85;1.05;;;19.30;95.50;;;;;;5075139;28;20039;-77
2022/06/13 12:04:13;;;;;;;2.90;1.15;;;19.40;96.10;;;;;;5075672;28;20040;-76
2022/06/13 12:06:48;;;;;;;5.85;0.90;;;19.40;95.30;;;;;;5069280;28;20075;-77
2022/06/13 12:09:23;;;;;;;3.97;1.05;;;19.50;94.60;;;;;;5075260;28;20028;-77
2022/06/13 12:11:57;;;;;;;3.28;1.08;;;19.50;95.30;;;;;;5075466;28;20028;-78
2022/06/13 12:14:25;;;;;;;8.00;1.65;;;19.60;96.00;;;;;;5074984;28;20020;-77
2022/06/13 12:17:03;;;;;;;6.47;1.20;;;19.70;95.00;;;;;;5075300;28;20028;-78
2022/06/13 12:19:37;;;;;;;2.20;0.80;;;19.60;95.60;;;;;;5075153;28;20468;-78
2022/06/13 12:22:09;;;;;;;5.80;1.02;;;19.40;94.40;;;;;;5074914;28;20037;-78
2022/06/13 12:25:00;;;;;;;4.53;1.42;;;19.30;94.00;;;;;;5075192;28;20390;-78
2022/06/13 12:27:26;;;;;;;;;;;19.40;95.70;;;;;;5075061;28;20567;-77
2022/06/13 12:30:07;;;;;;;5.25;1.40;;;19.50;93.50;;;;;;5075364;28;19908;-78
2022/06/13 12:33:15;;;;;;;7.25;1.83;;;19.70;95.50;;;;;;5074980;28;20025;-78
2022/06/13 12:36:02;;;;;;;4.22;1.27;;;19.80;95.10;;;;;;5032438;28;20479;-77
2022/06/13 12:38:39;;;;;;;6.10;1.58;;;19.50;94.30;;;;;;5075757;28;20115;-78
2022/06/13 12:41:25;;;;;;;3.25;1.00;;;19.40;94.30;;;;;;5075848;28;20044;-78
2022/06/13 12:44:15;;;;;;;5.38;1.00;;;19.40;94.30;;;;;;5076337;28;20044;-77
2022/06/13 12:46:49;;;;;;;3.17;1.27;;;19.20;95.10;;;;;;5081164;28;20036;-78
2022/06/13 12:49:47;;;;;;;4.15;1.42;;;19.10;95.50;;;;;;5080803;28;20166;-78
2022/06/13 12:52:25;;;;;;;3.67;1.10;;;19.00;94.90;;;;;;5076856;28;20051;-78
2022/06/13 12:54:52;;;;;;;4.78;1.08;;;19.10;95.30;;;;;;5074988;28;20063;-77
2022/06/13 12:57:36;;;;;;;6.93;1.40;;;19.30;94.90;;;;;;5074501;28;20043;-77
2022/06/13 13:00:26;;;;;;;5.05;1.00;;;19.30;93.80;;;;;;5074448;28;20099;-77
2022/06/13 13:03:20;;;;;;;8.82;1.25;;;19.30;94.80;;;;;;5073963;28;20601;-78
2022/06/13 13:05:52;;;;;;;5.82;1.15;;;19.40;94.70;;;;;;5074704;28;20028;-77
2022/06/13 13:08:44;;;;;;;7.28;1.20;;;19.30;94.10;;;;;;5074561;28;20387;-77
2022/06/13 13:11:31;;;;;;;7.15;1.50;;;19.40;94.20;;;;;;5074825;28;20020;-77
2022/06/13 13:14:03;;;;;;;4.07;1.42;;;19.40;92.50;;;;;;5077584;28;20088;-78
2022/06/13 13:16:49;;;;;;;6.95;1.77;;;19.40;95.40;;;;;;5075037;28;20444;-77
2022/06/13 13:19:33;;;;;;;4.10;1.10;;;19.50;94.80;;;;;;5073677;28;20024;-77
2022/06/13 13:22:07;;;;;;;2.85;1.25;;;19.60;93.30;;;;;;5075180;28;20032;-77
2022/06/13 13:24:55;;;;;;;5.38;1.58;;;19.30;93.90;;;;;;5075507;28;20031;-77
2022/06/13 13:27:21;;;;;;;6.25;0.85;;;19.10;93.70;;;;;;5076669;28;20539;-78
2022/06/13 13:30:17;;;;;;;7.88;1.95;;;19.20;94.20;;;;;;5074704;28;20025;-77
2022/06/13 13:33:01;;;;;;;2.78;1.10;;;19.30;94.40;;;;;;5073392;28;20036;-77
2022/06/13 13:35:44;;;;;;;3.90;1.17;;;19.20;94.00;;;;;;5073871;28;20025;-78
2022/06/13 13:38:23;;;;;;;3.58;1.50;;;19.30;94.00;;;;;;5073561;28;20572;-78
2022/06/13 13:40:57;;;;;;;6.07;1.58;;;19.50;92.80;;;;;;5075314;28;20043;-77
2022/06/13 13:43:38;;;;;;;5.57;1.33;;;19.60;92.80;;;;;;5073718;28;20032;-77
2022/06/13 13:46:06;;;;;;;7.18;1.27;;;19.60;93.20;;;;;;5074120;28;20032;-76
2022/06/13 13:48:57;;;;;;;2.42;1.10;;;19.60;92.50;;;;;;5075688;28;20028;-78